createdAt,value
2023-01-11T00:03:27.464Z,90.06
2023-01-11T00:08:22.132Z,90.05
2023-01-11T00:13:15.427Z,89.79
2023-01-11T00:18:09.050Z,89.81
2023-01-11T00:23:01.824Z,90.16
2023-01-11T00:27:55.647Z,89.90
2023-01-11T00:32:48.391Z,90.10
2023-01-11T00:37:41.739Z,90.09
2023-01-11T00:42:52.320Z,90.09
2023-01-11T00:48:01.853Z,90.29
2023-01-11T00:52:54.634Z,90.16
2023-01-11T00:57:47.435Z,90.38
2023-01-11T01:02:40.312Z,90.65
2023-01-11T01:07:33.111Z,90.38
2023-01-11T01:12:39.846Z,90.38
2023-01-11T01:17:32.709Z,90.80
2023-01-11T01:22:25.498Z,90.81
2023-01-11T01:27:20.067Z,90.91
2023-01-11T01:32:13.325Z,90.65
2023-01-11T01:37:08.450Z,90.83
2023-01-11T01:42:01.378Z,91.14
2023-01-11T01:46:54.166Z,91.30
2023-01-11T01:51:58.766Z,91.00
2023-01-11T01:56:55.827Z,90.94
2023-01-11T02:01:50.716Z,91.05
2023-01-11T02:06:44.399Z,91.34
2023-01-11T02:11:43.343Z,91.14
2023-01-11T02:16:36.428Z,91.07
2023-01-11T02:21:41.533Z,91.19
2023-01-11T02:27:19.487Z,91.32
2023-01-11T02:32:22.550Z,91.01
2023-01-11T02:37:38.535Z,90.93
2023-01-11T02:43:08.814Z,91.33
2023-01-11T02:48:20.179Z,90.85
2023-01-11T02:53:25.058Z,91.52
2023-01-11T02:58:21.127Z,91.14
2023-01-11T03:03:22.002Z,90.99
2023-01-11T03:08:40.678Z,91.26
2023-01-11T03:14:05.259Z,90.91
2023-01-11T03:19:01.031Z,91.13
2023-01-11T03:24:21.422Z,91.20
2023-01-11T03:29:26.855Z,91.20
2023-01-11T03:34:58.266Z,91.04
2023-01-11T03:40:04.233Z,91.44
2023-01-11T03:44:59.258Z,91.38
2023-01-11T03:50:08.859Z,91.47
2023-01-11T03:55:05.540Z,91.02
2023-01-11T03:59:58.631Z,91.07
2023-01-11T04:04:51.699Z,90.92
2023-01-11T04:09:44.420Z,91.29
2023-01-11T04:14:37.445Z,91.07
2023-01-11T04:19:30.360Z,91.12
2023-01-11T04:24:23.213Z,91.11
2023-01-11T04:29:15.954Z,91.21
2023-01-11T04:34:08.766Z,91.10
2023-01-11T04:39:02.031Z,91.18
2023-01-11T04:43:56.881Z,90.96
2023-01-11T04:48:49.651Z,91.23
2023-01-11T04:53:42.406Z,91.08
2023-01-11T04:58:38.309Z,91.13
2023-01-11T05:03:32.360Z,91.42
2023-01-11T05:08:27.238Z,91.14
2023-01-11T05:13:20.124Z,91.11
2023-01-11T05:18:12.955Z,91.09
2023-01-11T05:23:05.993Z,91.21
2023-01-11T05:27:58.767Z,91.13
2023-01-11T05:32:51.895Z,91.05
2023-01-11T05:37:44.706Z,91.19
2023-01-11T05:42:37.556Z,90.84
2023-01-11T05:47:30.370Z,91.12
2023-01-11T05:52:23.155Z,91.27
2023-01-11T05:57:15.958Z,91.34
2023-01-11T06:02:08.881Z,90.94
2023-01-11T06:07:01.776Z,91.21
2023-01-11T06:11:54.625Z,91.22
2023-01-11T06:16:47.525Z,91.14
2023-01-11T06:21:40.579Z,90.68
2023-01-11T06:26:34.507Z,90.62
2023-01-11T06:31:27.583Z,90.99
2023-01-11T06:36:20.439Z,90.54
2023-01-11T06:41:14.077Z,90.68
2023-01-11T06:46:10.821Z,90.71
2023-01-11T06:51:03.747Z,90.77
2023-01-11T06:55:58.784Z,90.96
2023-01-11T07:00:53.349Z,91.12
2023-01-11T07:05:46.322Z,90.97
2023-01-11T07:10:39.779Z,91.05
2023-01-11T07:15:32.712Z,91.24
2023-01-11T07:20:26.657Z,91.24
2023-01-11T07:25:20.117Z,91.73
2023-01-11T07:30:13.467Z,91.38
2023-01-11T07:35:06.740Z,91.13
2023-01-11T07:39:59.848Z,91.08
2023-01-11T07:44:52.635Z,90.93
2023-01-11T07:49:45.467Z,90.71
2023-01-11T07:54:38.257Z,90.60
2023-01-11T07:59:31.621Z,90.63
2023-01-11T08:04:24.438Z,90.70
2023-01-11T08:09:17.244Z,90.37
2023-01-11T08:14:29.530Z,90.58
2023-01-11T08:19:22.354Z,90.31
2023-01-11T08:24:15.318Z,90.62
2023-01-11T08:29:08.118Z,90.37
2023-01-11T08:34:00.904Z,90.60
2023-01-11T08:39:00.201Z,90.22
2023-01-11T08:43:53.380Z,90.08
2023-01-11T08:48:47.904Z,90.27
2023-01-11T08:53:43.104Z,89.66
2023-01-11T08:58:36.836Z,89.46
2023-01-11T09:03:34.531Z,89.75
2023-01-11T09:08:29.955Z,89.62
2023-01-11T09:13:23.051Z,89.79
2023-01-11T09:18:30.909Z,89.49
2023-01-11T09:23:23.670Z,89.80
2023-01-11T09:28:21.441Z,90.04
2023-01-11T09:33:17.179Z,89.56
2023-01-11T09:38:10.079Z,89.44
2023-01-11T09:43:07.413Z,89.38
2023-01-11T09:48:12.893Z,89.50
2023-01-11T09:53:09.833Z,89.62
2023-01-11T09:58:06.892Z,89.17
2023-01-11T10:03:33.135Z,89.51
2023-01-11T10:18:33.080Z,89.09
2023-01-11T10:20:17.738Z,88.71
2023-01-11T10:25:26.064Z,88.85
2023-01-11T10:30:41.937Z,88.89
2023-01-11T10:35:59.194Z,88.98
2023-01-11T10:41:06.797Z,89.32
2023-01-11T10:51:42.573Z,89.01
2023-01-11T10:57:05.219Z,88.64
2023-01-11T11:02:01.760Z,88.89
2023-01-11T11:07:15.437Z,89.00
2023-01-11T11:12:38.870Z,89.17
2023-01-11T11:17:38.459Z,88.95
2023-01-11T11:22:31.220Z,88.97
2023-01-11T11:27:36.756Z,89.48
2023-01-11T11:32:37.214Z,89.32
2023-01-11T11:37:36.706Z,89.28
2023-01-11T11:42:31.519Z,89.72
2023-01-11T11:47:24.305Z,89.61
2023-01-11T11:52:19.013Z,89.30
2023-01-11T11:57:18.569Z,89.16
2023-01-11T12:02:29.791Z,89.48
2023-01-11T12:07:29.985Z,89.40
2023-01-11T12:12:26.943Z,89.40
2023-01-11T12:17:27.073Z,89.07
2023-01-11T12:22:22.928Z,88.95
2023-01-11T12:27:34.387Z,89.16
2023-01-11T12:32:58.933Z,88.96
2023-01-11T12:38:01.291Z,89.33
2023-01-11T12:43:49.283Z,89.26
2023-01-11T12:48:49.919Z,89.06
2023-01-11T12:54:01.202Z,89.43
2023-01-11T12:59:09.555Z,89.23
2023-01-11T13:04:17.181Z,89.39
2023-01-11T13:09:31.553Z,89.43
2023-01-11T13:14:27.102Z,89.60
2023-01-11T13:19:32.980Z,89.27
2023-01-11T13:24:30.513Z,89.18
2023-01-11T13:29:26.987Z,89.14
2023-01-11T13:34:47.800Z,89.24
2023-01-11T13:39:49.211Z,89.47
2023-01-11T13:44:51.149Z,90.09
2023-01-11T13:50:10.862Z,90.12
2023-01-11T13:55:20.919Z,90.51
2023-01-11T14:00:28.019Z,90.77
2023-01-11T14:05:24.367Z,90.97
2023-01-11T14:10:29.781Z,91.25
2023-01-11T14:15:46.087Z,91.14
2023-01-11T14:21:22.904Z,91.25
2023-01-11T14:26:46.313Z,91.74
2023-01-11T14:32:12.961Z,91.44
2023-01-11T14:37:43.999Z,91.57
2023-01-11T14:42:52.221Z,91.63
2023-01-11T14:48:06.841Z,91.88
2023-01-11T14:53:02.461Z,91.90
2023-01-11T14:58:01.955Z,92.11
2023-01-11T15:03:08.452Z,92.19
2023-01-11T15:08:17.109Z,91.98
2023-01-11T15:13:16.792Z,92.39
2023-01-11T15:18:24.403Z,92.56
2023-01-11T15:23:19.113Z,92.52
2023-01-11T15:28:49.509Z,92.32
2023-01-11T15:33:51.178Z,92.29
2023-01-11T15:38:51.009Z,92.14
2023-01-11T15:44:08.753Z,92.32
2023-01-11T15:49:07.512Z,91.97
2023-01-11T15:54:21.501Z,91.82
2023-01-11T16:00:11.460Z,92.02
2023-01-11T16:05:16.967Z,92.05
2023-01-11T16:10:28.711Z,92.17
2023-01-11T16:15:49.479Z,91.99
2023-01-11T16:20:47.493Z,91.96
2023-01-11T16:25:43.533Z,91.88
2023-01-11T16:30:36.722Z,91.99
2023-01-11T16:35:30.007Z,91.86
2023-01-11T16:40:37.284Z,92.08
2023-01-11T16:45:54.437Z,92.05
2023-01-11T16:51:01.952Z,91.83
2023-01-11T16:56:03.251Z,92.09
2023-01-11T17:01:09.890Z,91.78
2023-01-11T17:06:08.853Z,91.91
2023-01-11T17:17:01.564Z,91.99
2023-01-11T17:22:08.620Z,91.89
2023-01-11T17:27:03.378Z,91.82
2023-01-11T17:31:58.629Z,91.90
2023-01-11T17:36:52.033Z,91.90
2023-01-11T17:42:02.440Z,91.78
2023-01-11T17:46:55.253Z,91.36
2023-01-11T17:51:48.237Z,91.32
2023-01-11T17:56:42.384Z,91.06
2023-01-11T18:01:35.279Z,91.12
2023-01-11T18:06:31.613Z,90.64
2023-01-11T18:11:28.151Z,90.64
2023-01-11T18:16:22.588Z,90.52
2023-01-11T18:21:27.666Z,90.36
2023-01-11T18:26:40.889Z,90.19
2023-01-11T18:31:34.067Z,90.23
2023-01-11T18:36:28.604Z,90.17
2023-01-11T18:41:35.358Z,89.82
2023-01-11T18:46:28.867Z,89.93
2023-01-11T18:51:37.008Z,89.74
2023-01-11T18:56:29.894Z,89.44
2023-01-11T19:01:22.842Z,89.28
2023-01-11T19:06:19.393Z,89.44
2023-01-11T19:11:14.105Z,89.51
2023-01-11T19:16:07.945Z,89.34
2023-01-11T19:21:06.928Z,89.07
2023-01-11T19:26:01.416Z,89.24
2023-01-11T19:30:54.351Z,89.33
2023-01-11T19:35:49.698Z,89.33
2023-01-11T19:40:42.504Z,89.31
2023-01-11T19:45:35.472Z,89.42
2023-01-11T19:50:28.261Z,89.60
2023-01-11T19:55:21.158Z,89.83
2023-01-11T20:00:15.432Z,89.78
2023-01-11T20:05:08.880Z,89.73
2023-01-11T20:10:01.905Z,90.09
2023-01-11T20:14:57.711Z,90.49
2023-01-11T20:19:54.613Z,90.28
2023-01-11T20:24:48.550Z,90.34
2023-01-11T20:29:43.863Z,90.35
2023-01-11T20:34:37.359Z,90.47
2023-01-11T20:39:30.792Z,90.64
2023-01-11T20:44:27.523Z,90.87
2023-01-11T20:49:23.168Z,90.87
2023-01-11T20:54:40.286Z,90.85
2023-01-11T20:59:36.615Z,91.05
2023-01-11T21:04:29.511Z,90.99
2023-01-11T21:09:22.557Z,90.94
2023-01-11T21:14:15.525Z,90.94
2023-01-11T21:19:09.088Z,91.22
2023-01-11T21:24:04.521Z,91.23
2023-01-11T21:29:02.684Z,91.40
2023-01-11T21:33:55.807Z,91.32
2023-01-11T21:38:49.274Z,91.36
2023-01-11T21:43:43.572Z,91.24
2023-01-11T21:48:37.805Z,91.32
2023-01-11T21:53:32.415Z,91.17
2023-01-11T21:58:25.255Z,91.06
2023-01-11T22:03:18.379Z,90.89
2023-01-11T22:08:12.190Z,90.73
2023-01-11T22:13:05.302Z,90.68
2023-01-11T22:17:58.192Z,90.74
2023-01-11T22:22:51.044Z,90.59
2023-01-11T22:27:43.988Z,90.78
2023-01-11T22:32:36.911Z,90.52
2023-01-11T22:37:29.752Z,90.51
2023-01-11T22:42:22.573Z,90.37
2023-01-11T22:47:15.443Z,90.12
2023-01-11T22:52:08.363Z,90.26
2023-01-11T22:57:01.283Z,90.39
2023-01-11T23:01:54.286Z,90.06
2023-01-11T23:06:47.249Z,90.29
2023-01-11T23:11:58.771Z,90.09
2023-01-11T23:16:52.113Z,89.90
2023-01-11T23:21:46.796Z,89.87
2023-01-11T23:26:40.824Z,89.86
2023-01-11T23:31:33.889Z,89.94
2023-01-11T23:36:32.396Z,89.89
2023-01-11T23:41:43.986Z,89.98
2023-01-11T23:46:55.358Z,89.94
2023-01-11T23:51:48.418Z,90.13
2023-01-11T23:56:41.811Z,90.20
